createdAt,value
2018-07-22T09:33:43.121Z,92.90
2018-07-22T09:36:12.682Z,92.60
2018-07-22T09:38:41.917Z,92.40
2018-07-22T09:41:11.284Z,92.40
2018-07-22T09:43:40.598Z,91.60
2018-07-22T09:46:10.076Z,91.40
2018-07-22T09:48:39.432Z,91.20
2018-07-22T09:51:08.855Z,91.40
2018-07-22T09:56:07.109Z,90.70
2018-07-22T09:58:36.474Z,90.80
2018-07-22T10:01:05.976Z,90.10
2018-07-22T10:03:35.319Z,89.80
2018-07-22T10:06:04.717Z,90.70
2018-07-22T10:08:34.120Z,89.20
2018-07-22T10:11:06.470Z,88.10
2018-07-22T10:13:35.784Z,86.20
2018-07-22T10:16:05.318Z,88.20
2018-07-22T10:18:34.647Z,87.60
2018-07-22T10:23:32.898Z,87.70
2018-07-22T10:26:02.285Z,86.60
2018-07-22T10:28:31.654Z,85.20
2018-07-22T10:31:00.993Z,84.20
2018-07-22T10:33:30.334Z,83.90
2018-07-22T10:35:59.742Z,84.90
2018-07-22T10:38:29.047Z,79.60
2018-07-22T10:43:27.283Z,80.20
2018-07-22T10:45:56.686Z,78.60
2018-07-22T10:48:25.996Z,79.90
2018-07-22T10:50:55.345Z,75.00
2018-07-22T10:55:53.673Z,74.30
2018-07-22T10:58:23.060Z,76.30
2018-07-22T11:00:52.420Z,75.60
2018-07-22T11:03:21.891Z,75.70
2018-07-22T11:05:51.206Z,68.70
2018-07-22T11:08:20.627Z,69.80
2018-07-22T11:10:49.957Z,71.20
2018-07-22T11:15:48.195Z,74.70
2018-07-22T11:18:17.580Z,73.00
2018-07-22T11:20:46.925Z,71.50
2018-07-22T11:23:16.269Z,71.70
2018-07-22T11:28:14.447Z,74.20
2018-07-22T11:30:43.789Z,75.50
2018-07-22T11:33:13.157Z,75.20
2018-07-22T11:35:42.461Z,74.90
2018-07-22T11:38:11.888Z,75.30
2018-07-22T11:40:41.199Z,75.90
2018-07-22T11:43:10.523Z,77.30
2018-07-22T11:45:39.839Z,77.60
2018-07-22T11:48:09.147Z,76.80
2018-07-22T11:53:07.408Z,77.60
2018-07-22T11:55:36.708Z,77.90
2018-07-22T11:58:06.205Z,71.70
2018-07-22T12:00:35.596Z,73.90
2018-07-22T12:03:04.939Z,73.40
2018-07-22T12:05:34.267Z,71.90
2018-07-22T12:08:03.605Z,72.40
2018-07-22T12:10:32.908Z,69.90
2018-07-22T12:13:02.248Z,66.50
2018-07-22T12:15:31.568Z,65.90
2018-07-22T12:18:00.919Z,65.90
2018-07-22T12:20:30.221Z,62.30
2018-07-22T12:22:59.584Z,64.90
2018-07-22T12:25:28.899Z,63.30
2018-07-22T12:27:58.282Z,62.60
2018-07-22T12:30:27.570Z,63.80
2018-07-22T12:35:25.808Z,64.10
2018-07-22T12:37:55.378Z,62.00
2018-07-22T12:40:24.725Z,61.50
2018-07-22T12:42:54.125Z,59.80
2018-07-22T12:45:23.484Z,61.10
2018-07-22T12:47:52.829Z,59.70
2018-07-22T12:50:22.509Z,59.80
2018-07-22T12:52:51.902Z,60.90
2018-07-22T12:55:21.276Z,60.20
2018-07-22T12:57:50.912Z,59.20
2018-07-22T13:00:20.250Z,58.80
2018-07-22T13:02:49.596Z,58.90
2018-07-22T13:07:47.816Z,62.40
2018-07-22T13:10:17.163Z,59.10
2018-07-22T13:12:46.480Z,57.40
2018-07-22T13:15:16.108Z,57.50
2018-07-22T13:17:45.712Z,58.10
2018-07-22T13:22:44.160Z,61.00
2018-07-22T13:25:13.516Z,60.50
2018-07-22T13:27:42.853Z,61.00
2018-07-22T13:30:12.218Z,60.00
2018-07-22T13:32:41.568Z,59.50
2018-07-22T13:35:13.081Z,58.00
2018-07-22T13:37:42.760Z,57.70
2018-07-22T13:42:41.204Z,57.90
2018-07-22T13:45:10.685Z,57.10
2018-07-22T13:47:39.972Z,56.60
2018-07-22T13:52:38.912Z,57.60
2018-07-22T13:55:08.264Z,57.80
2018-07-22T13:57:37.575Z,58.30
2018-07-22T14:00:07.243Z,55.60
2018-07-22T14:02:36.574Z,57.00
2018-07-22T14:05:05.997Z,55.50
2018-07-22T14:10:04.605Z,55.90
2018-07-22T14:15:03.008Z,57.80
2018-07-22T14:20:01.250Z,54.70
2018-07-22T14:22:30.588Z,56.90
2018-07-22T14:27:28.881Z,56.40
2018-07-22T14:32:27.161Z,53.90
2018-07-22T14:34:56.552Z,51.50
2018-07-22T14:37:25.898Z,51.80
2018-07-22T14:39:55.321Z,50.60
2018-07-22T14:42:24.688Z,50.50
2018-07-22T14:47:22.959Z,47.50
2018-07-22T14:49:52.808Z,48.00
2018-07-22T14:52:22.256Z,49.00
2018-07-22T14:54:51.591Z,51.60
2018-07-22T14:57:20.923Z,50.40
2018-07-22T14:59:50.320Z,49.60
2018-07-22T15:02:19.657Z,50.60
2018-07-22T15:04:48.998Z,50.70
2018-07-22T15:07:18.349Z,50.20
2018-07-22T15:09:47.668Z,49.90
2018-07-22T15:12:16.996Z,51.00
2018-07-22T15:14:46.348Z,49.00
2018-07-22T15:17:15.709Z,48.20
2018-07-22T15:22:13.900Z,48.50
2018-07-22T15:24:43.248Z,46.70
2018-07-22T15:27:12.646Z,48.20
2018-07-22T15:29:41.977Z,48.80
2018-07-22T15:32:11.360Z,46.80
2018-07-22T15:34:41.015Z,47.40
2018-07-22T15:37:10.473Z,47.50
2018-07-22T15:39:39.790Z,49.00
2018-07-22T15:42:09.152Z,49.00
2018-07-22T15:44:38.741Z,46.40
2018-07-22T15:49:36.941Z,46.10
2018-07-22T15:52:06.283Z,46.60
2018-07-22T15:54:35.616Z,46.70
2018-07-22T15:57:05.064Z,47.80
2018-07-22T15:59:34.495Z,50.00
2018-07-22T16:02:03.917Z,52.30
2018-07-22T16:04:33.434Z,49.50
2018-07-22T16:09:32.093Z,52.20
2018-07-22T16:12:01.780Z,49.40
2018-07-22T16:14:31.120Z,51.80
2018-07-22T16:17:00.452Z,52.80
2018-07-22T16:21:58.641Z,49.80
2018-07-22T16:24:28.076Z,48.60
2018-07-22T16:26:57.455Z,48.20
2018-07-22T16:31:55.635Z,46.70
2018-07-22T16:34:24.934Z,46.60
2018-07-22T16:36:54.276Z,47.50
2018-07-22T16:39:23.623Z,46.20
2018-07-22T16:41:52.975Z,48.30
2018-07-22T16:44:22.318Z,46.10
2018-07-22T16:46:51.642Z,46.50
2018-07-22T16:49:20.988Z,45.60
2018-07-22T16:51:50.316Z,45.80
2018-07-22T16:54:19.648Z,47.60
2018-07-22T16:56:49.028Z,45.60
2018-07-22T16:59:25.024Z,46.00
2018-07-22T17:04:23.214Z,46.40
2018-07-22T17:06:52.572Z,47.60
2018-07-22T17:09:21.896Z,49.20
2018-07-22T17:11:51.211Z,48.70
2018-07-22T17:16:49.465Z,50.50
2018-07-22T17:19:18.817Z,48.90
2018-07-22T17:21:48.121Z,52.50
2018-07-22T17:24:17.539Z,52.60
2018-07-22T17:26:46.867Z,52.10
2018-07-22T17:29:16.184Z,51.30
2018-07-22T17:31:45.507Z,52.50
2018-07-22T17:36:43.739Z,53.00
2018-07-22T17:39:13.160Z,53.80
2018-07-22T17:41:42.489Z,54.80
2018-07-22T17:44:11.833Z,54.60
2018-07-22T17:46:41.132Z,54.00
2018-07-22T17:49:10.459Z,54.70
2018-07-22T17:51:39.770Z,55.20
2018-07-22T17:54:09.142Z,56.00
2018-07-22T17:56:38.505Z,55.10
2018-07-22T17:59:07.920Z,55.70
2018-07-22T18:01:37.306Z,56.40
2018-07-22T18:04:06.645Z,57.10
2018-07-22T18:06:36.028Z,56.60
2018-07-22T18:11:36.024Z,57.80
2018-07-22T18:14:05.457Z,58.00
2018-07-22T18:16:35.022Z,59.50
2018-07-22T18:19:04.432Z,60.40
2018-07-22T18:21:33.730Z,62.00
2018-07-22T18:24:03.105Z,61.30
2018-07-22T18:26:32.550Z,61.40
2018-07-22T18:29:01.873Z,64.20
2018-07-22T18:31:31.202Z,65.70
2018-07-22T18:34:00.559Z,65.00
2018-07-22T18:36:29.892Z,66.70
2018-07-22T18:38:59.316Z,68.40
2018-07-22T18:41:28.691Z,67.80
2018-07-22T18:48:55.767Z,73.20
2018-07-22T18:53:54.015Z,75.70
2018-07-22T18:56:23.344Z,76.50
2018-07-22T19:01:21.703Z,78.60
2018-07-22T19:03:51.107Z,80.20
2018-07-22T19:06:20.504Z,79.90
2018-07-22T19:08:49.832Z,79.40
2018-07-22T19:11:19.205Z,80.30
2018-07-22T19:13:48.577Z,80.00
2018-07-22T19:18:46.783Z,79.60
2018-07-22T19:21:16.195Z,80.10
2018-07-22T19:23:45.793Z,79.70
2018-07-22T19:26:15.155Z,80.20
2018-07-22T19:28:50.867Z,81.00
2018-07-22T19:31:20.195Z,80.90
2018-07-22T19:33:49.835Z,81.50
2018-07-22T19:38:48.154Z,81.90
2018-07-22T19:41:17.511Z,81.40
2018-07-22T19:43:46.948Z,83.00
2018-07-22T19:46:16.673Z,82.90
2018-07-22T19:48:46.328Z,83.40
2018-07-22T19:51:15.851Z,82.70
2018-07-22T19:53:45.373Z,83.60
2018-07-22T19:56:14.924Z,83.90
2018-07-22T19:58:44.376Z,85.00
2018-07-22T20:06:11.521Z,86.50
2018-07-22T20:08:40.863Z,87.10
2018-07-22T20:11:10.219Z,87.70
2018-07-22T20:13:39.544Z,87.60
2018-07-22T20:18:37.762Z,88.60
2018-07-22T20:21:07.205Z,88.80
2018-07-22T20:23:36.553Z,88.80
2018-07-22T20:28:34.785Z,89.90
2018-07-22T20:31:04.162Z,90.10
2018-07-22T20:36:02.440Z,90.90
2018-07-22T20:38:31.732Z,90.70
2018-07-22T20:41:01.077Z,91.00
2018-07-22T20:43:30.427Z,91.30
2018-07-22T20:45:59.787Z,91.50
2018-07-22T20:48:29.119Z,91.80
2018-07-22T20:50:58.533Z,91.90
2018-07-22T20:53:27.826Z,91.80
2018-07-22T20:55:57.204Z,92.00
2018-07-22T20:58:26.759Z,91.90
2018-07-22T21:00:56.180Z,91.90
2018-07-22T21:05:54.352Z,92.20
2018-07-22T21:08:23.740Z,92.60
2018-07-22T21:10:53.072Z,92.50
2018-07-22T21:13:27.437Z,92.50
2018-07-22T21:15:56.741Z,92.70
2018-07-22T21:18:26.080Z,92.60
2018-07-22T21:23:24.337Z,92.60
2018-07-22T21:25:53.687Z,93.00
2018-07-22T21:28:23.016Z,93.40
2018-07-22T21:30:52.331Z,93.70
2018-07-22T21:33:21.833Z,93.50
2018-07-22T21:35:51.315Z,93.90
2018-07-22T21:38:20.869Z,94.10
2018-07-22T21:40:50.396Z,94.30
2018-07-22T21:45:49.014Z,94.80
2018-07-22T21:48:18.673Z,95.00
2018-07-22T21:50:48.298Z,95.20
2018-07-22T21:53:17.893Z,95.10
2018-07-22T21:55:47.450Z,95.20
2018-07-22T21:58:17.217Z,95.20
2018-07-22T22:00:46.912Z,95.30
2018-07-22T22:03:16.507Z,95.40
2018-07-22T22:05:46.177Z,95.50
2018-07-22T22:08:15.889Z,95.90
2018-07-22T22:10:45.554Z,96.10
2018-07-22T22:13:15.256Z,96.10
2018-07-22T22:15:44.852Z,96.40
2018-07-22T22:18:14.444Z,96.70
2018-07-22T22:20:43.943Z,96.60
2018-07-22T22:23:13.280Z,96.40
2018-07-22T22:25:42.651Z,96.60
2018-07-22T22:28:12.000Z,96.80
2018-07-22T22:30:41.332Z,96.60
2018-07-22T22:33:10.717Z,96.60
2018-07-22T22:35:40.033Z,96.50
2018-07-22T22:38:09.367Z,96.50
2018-07-22T22:40:38.732Z,96.40
2018-07-22T22:43:08.125Z,96.90
2018-07-22T22:45:37.456Z,96.40
2018-07-22T22:48:06.783Z,96.70
2018-07-22T22:50:36.140Z,96.50
2018-07-22T22:53:05.511Z,96.20
2018-07-22T22:55:34.883Z,96.60
2018-07-22T22:58:15.454Z,96.60
2018-07-22T23:00:44.867Z,96.60
2018-07-22T23:03:14.254Z,96.50
2018-07-22T23:05:43.620Z,96.50
2018-07-22T23:08:12.963Z,96.90
2018-07-22T23:10:42.389Z,96.80
2018-07-22T23:13:11.700Z,96.50
2018-07-22T23:15:41.015Z,96.70
2018-07-22T23:18:10.313Z,96.60
2018-07-22T23:20:39.651Z,97.00
2018-07-22T23:23:08.975Z,97.20
2018-07-22T23:25:38.359Z,96.90
2018-07-22T23:28:07.677Z,97.00
2018-07-22T23:30:37.068Z,96.80
2018-07-22T23:33:06.442Z,96.80
2018-07-22T23:35:35.816Z,97.00
2018-07-22T23:38:05.411Z,96.80
2018-07-22T23:40:34.798Z,96.70
2018-07-22T23:43:04.136Z,96.70
2018-07-22T23:45:33.478Z,96.90
2018-07-22T23:48:02.783Z,97.40
2018-07-22T23:50:32.169Z,97.40
2018-07-22T23:53:01.660Z,97.70
2018-07-22T23:55:31.020Z,97.70
2018-07-22T23:58:00.361Z,97.70
